createdAt,value
2022-12-03T00:00:32.677Z,21.33
2022-12-03T00:02:59.435Z,21.20
2022-12-03T00:05:26.321Z,17.83
2022-12-03T00:07:52.984Z,20.70
2022-12-03T00:10:19.965Z,18.90
2022-12-03T00:12:46.869Z,20.93
2022-12-03T00:15:13.797Z,21.47
2022-12-03T00:17:40.597Z,20.43
2022-12-03T00:20:08.887Z,18.77
2022-12-03T00:22:35.483Z,20.63
2022-12-03T00:25:02.179Z,19.30
2022-12-03T00:27:28.834Z,20.10
2022-12-03T00:29:55.500Z,19.27
2022-12-03T00:32:22.200Z,19.17
2022-12-03T00:34:48.818Z,21.10
2022-12-03T00:37:15.700Z,20.27
2022-12-03T00:39:42.343Z,18.83
2022-12-03T00:42:09.209Z,20.90
2022-12-03T00:44:36.105Z,21.07
2022-12-03T00:47:02.857Z,17.30
2022-12-03T00:49:29.678Z,20.30
2022-12-03T00:51:56.320Z,20.17
2022-12-03T00:54:26.966Z,18.17
2022-12-03T00:56:58.325Z,21.20
2022-12-03T00:59:25.034Z,20.23
2022-12-03T01:01:51.770Z,17.73
2022-12-03T01:04:18.619Z,19.27
2022-12-03T01:06:45.282Z,18.53
2022-12-03T01:09:11.953Z,16.47
2022-12-03T01:11:38.713Z,20.20
2022-12-03T01:14:16.663Z,19.23
2022-12-03T01:16:43.549Z,19.47
2022-12-03T01:19:15.693Z,18.23
2022-12-03T01:21:43.825Z,18.90
2022-12-03T01:24:10.694Z,16.07
2022-12-03T01:26:37.372Z,15.67
2022-12-03T01:29:04.571Z,19.00
2022-12-03T01:31:49.827Z,18.20
2022-12-03T01:34:16.498Z,16.17
2022-12-03T01:36:43.196Z,16.87
2022-12-03T01:39:09.900Z,18.03
2022-12-03T01:41:37.482Z,19.73
2022-12-03T01:44:14.552Z,20.80
2022-12-03T01:46:42.721Z,18.17
2022-12-03T01:49:19.054Z,17.70
2022-12-03T01:51:46.867Z,20.90
2022-12-03T01:54:18.509Z,18.07
2022-12-03T01:56:46.135Z,19.07
2022-12-03T01:59:18.593Z,18.73
2022-12-03T02:01:45.401Z,20.80
2022-12-03T02:04:14.256Z,20.97
2022-12-03T02:06:42.200Z,20.90
2022-12-03T02:09:13.632Z,17.50
2022-12-03T02:11:46.967Z,18.77
2022-12-03T02:14:19.501Z,23.20
2022-12-03T02:16:46.545Z,21.03
2022-12-03T02:19:25.626Z,20.13
2022-12-03T02:22:05.680Z,20.90
2022-12-03T02:24:55.490Z,20.17
2022-12-03T02:27:23.354Z,19.03
2022-12-03T02:29:50.941Z,20.37
2022-12-03T02:32:20.045Z,20.13
2022-12-03T02:34:47.320Z,24.03
2022-12-03T02:37:24.581Z,24.17
2022-12-03T02:39:54.994Z,22.50
2022-12-03T02:42:37.438Z,20.37
2022-12-03T02:45:17.557Z,21.23
2022-12-03T02:47:51.585Z,23.47
2022-12-03T02:50:23.624Z,23.53
2022-12-03T02:52:53.198Z,23.60
2022-12-03T02:55:20.693Z,22.70
2022-12-03T02:57:49.314Z,20.87
2022-12-03T03:00:17.349Z,26.07
2022-12-03T03:02:46.284Z,22.03
2022-12-03T03:05:14.819Z,20.43
2022-12-03T03:07:42.656Z,22.43
2022-12-03T03:10:14.698Z,23.30
2022-12-03T03:12:41.553Z,23.97
2022-12-03T03:15:10.516Z,25.53
2022-12-03T03:17:37.992Z,25.50
2022-12-03T03:20:06.566Z,25.70
2022-12-03T03:22:35.659Z,25.57
2022-12-03T03:25:03.210Z,24.23
2022-12-03T03:27:31.201Z,24.13
2022-12-03T03:29:58.798Z,25.53
2022-12-03T03:32:28.350Z,25.27
2022-12-03T03:34:56.060Z,22.67
2022-12-03T03:37:23.988Z,22.73
2022-12-03T03:39:51.315Z,22.47
2022-12-03T03:42:18.616Z,25.73
2022-12-03T03:44:45.480Z,24.90
2022-12-03T03:47:13.117Z,26.53
2022-12-03T03:49:40.445Z,25.47
2022-12-03T03:52:10.594Z,22.90
2022-12-03T03:54:39.322Z,23.73
2022-12-03T03:57:06.275Z,23.53
2022-12-03T03:59:33.404Z,27.90
2022-12-03T04:02:00.199Z,24.53
2022-12-03T04:04:31.291Z,26.67
2022-12-03T04:06:58.128Z,25.43
2022-12-03T04:09:24.786Z,26.73
2022-12-03T04:12:23.606Z,26.00
2022-12-03T04:14:50.358Z,27.07
2022-12-03T04:17:17.128Z,26.80
2022-12-03T04:19:43.876Z,25.47
2022-12-03T04:22:29.241Z,27.10
2022-12-03T04:25:15.963Z,27.10
2022-12-03T04:28:01.114Z,26.63
2022-12-03T04:30:27.967Z,24.77
2022-12-03T04:33:13.296Z,30.43
2022-12-03T04:35:43.044Z,27.67
2022-12-03T04:38:15.559Z,26.47
2022-12-03T04:41:00.838Z,30.77
2022-12-03T04:43:28.520Z,29.57
2022-12-03T04:45:55.530Z,29.30
2022-12-03T04:48:22.309Z,29.53
2022-12-03T04:50:49.096Z,26.33
2022-12-03T04:53:16.099Z,26.87
2022-12-03T04:55:42.736Z,30.67
2022-12-03T04:58:10.002Z,31.30
2022-12-03T05:00:36.997Z,29.27
2022-12-03T05:03:03.799Z,29.60
2022-12-03T05:05:30.762Z,32.40
2022-12-03T05:07:57.538Z,33.13
2022-12-03T05:10:24.259Z,28.63
2022-12-03T05:12:50.915Z,31.40
2022-12-03T05:15:17.692Z,32.07
2022-12-03T05:17:44.300Z,31.30
2022-12-03T05:20:30.160Z,32.93
2022-12-03T05:22:56.807Z,29.73
2022-12-03T05:25:23.412Z,32.60
2022-12-03T05:27:50.168Z,26.93
2022-12-03T05:30:17.018Z,31.70
2022-12-03T05:32:43.808Z,34.63
2022-12-03T05:35:11.332Z,33.30
2022-12-03T05:37:38.187Z,29.83
2022-12-03T05:40:05.663Z,28.50
2022-12-03T05:42:50.907Z,34.47
2022-12-03T05:45:18.590Z,33.60
2022-12-03T05:47:45.301Z,35.70
2022-12-03T05:50:12.151Z,32.47
2022-12-03T05:52:38.830Z,29.73
2022-12-03T05:55:06.577Z,34.27
2022-12-03T05:57:33.474Z,33.10
2022-12-03T06:00:00.132Z,34.33
2022-12-03T06:02:26.895Z,32.87
2022-12-03T06:04:54.115Z,33.33
2022-12-03T06:07:28.943Z,36.73
2022-12-03T06:09:56.085Z,36.83
2022-12-03T06:12:22.871Z,36.30
2022-12-03T06:14:49.694Z,35.63
2022-12-03T06:17:16.435Z,33.97
2022-12-03T06:19:43.144Z,36.83
2022-12-03T06:22:09.833Z,32.50
2022-12-03T06:24:36.596Z,36.60
2022-12-03T06:27:03.791Z,33.53
2022-12-03T06:29:30.463Z,35.47
2022-12-03T06:31:57.175Z,34.77
2022-12-03T06:34:23.845Z,35.20
2022-12-03T06:36:50.530Z,33.63
2022-12-03T06:39:18.001Z,36.33
2022-12-03T06:41:44.968Z,34.13
2022-12-03T06:44:11.767Z,35.27
2022-12-03T06:46:38.579Z,37.20
2022-12-03T06:49:05.608Z,33.80
2022-12-03T06:51:32.234Z,37.00
2022-12-03T06:53:58.989Z,36.13
2022-12-03T06:56:28.464Z,35.90
2022-12-03T06:58:59.613Z,35.60
2022-12-03T07:01:26.783Z,35.87
2022-12-03T07:03:53.658Z,35.73
2022-12-03T07:06:20.539Z,35.00
2022-12-03T07:08:47.225Z,37.67
2022-12-03T07:11:31.936Z,38.97
2022-12-03T07:14:05.398Z,36.87
2022-12-03T07:16:35.087Z,36.80
2022-12-03T07:19:02.215Z,35.10
2022-12-03T07:21:28.982Z,36.53
2022-12-03T07:23:55.660Z,37.73
2022-12-03T07:26:22.336Z,37.50
2022-12-03T07:28:49.001Z,38.77
2022-12-03T07:31:16.002Z,36.73
2022-12-03T07:33:42.770Z,37.40
2022-12-03T07:36:10.004Z,39.30
2022-12-03T07:38:36.716Z,36.97
2022-12-03T07:41:03.635Z,39.17
2022-12-03T07:43:30.262Z,38.13
2022-12-03T07:45:56.914Z,36.10
2022-12-03T07:48:23.819Z,39.03
2022-12-03T07:50:50.549Z,38.93
2022-12-03T07:53:17.392Z,38.27
2022-12-03T07:55:44.079Z,35.00
2022-12-03T07:58:10.777Z,37.43
2022-12-03T08:00:37.544Z,36.87
2022-12-03T08:04:15.568Z,33.60
2022-12-03T08:06:00.230Z,37.33
2022-12-03T08:08:26.863Z,36.90
2022-12-03T08:10:53.594Z,35.70
2022-12-03T08:13:20.261Z,33.30
2022-12-03T08:15:47.184Z,35.67
2022-12-03T08:18:20.048Z,35.37
2022-12-03T08:20:49.114Z,34.47
2022-12-03T08:23:21.813Z,35.60
2022-12-03T08:25:50.795Z,37.97
2022-12-03T08:28:19.585Z,35.07
2022-12-03T08:31:03.119Z,32.83
2022-12-03T08:33:35.519Z,33.80
2022-12-03T08:36:12.764Z,34.50
2022-12-03T08:38:40.201Z,34.47
2022-12-03T08:41:15.572Z,32.70
2022-12-03T08:43:43.777Z,33.97
2022-12-03T08:46:19.019Z,34.67
2022-12-03T08:48:48.957Z,31.73
2022-12-03T08:51:21.100Z,34.47
2022-12-03T08:53:49.840Z,28.73
2022-12-03T08:56:23.999Z,30.17
2022-12-03T08:58:55.984Z,29.80
2022-12-03T09:01:37.041Z,27.83
2022-12-03T09:04:20.755Z,28.87
2022-12-03T09:06:47.752Z,29.40
2022-12-03T09:09:14.441Z,30.00
2022-12-03T09:11:43.112Z,29.13
2022-12-03T09:14:15.111Z,30.60
2022-12-03T09:16:44.931Z,30.57
2022-12-03T09:19:11.692Z,28.80
2022-12-03T09:21:38.369Z,29.63
2022-12-03T09:24:05.309Z,30.93
2022-12-03T09:26:32.195Z,26.27
2022-12-03T09:28:58.861Z,29.43
2022-12-03T09:31:25.664Z,30.77
2022-12-03T09:33:52.372Z,28.13
2022-12-03T09:36:19.009Z,28.47
2022-12-03T09:38:47.869Z,26.77
2022-12-03T09:41:16.246Z,27.20
2022-12-03T09:44:03.405Z,26.47
2022-12-03T09:46:30.678Z,26.73
2022-12-03T09:48:57.796Z,26.10
2022-12-03T09:51:30.213Z,25.70
2022-12-03T09:54:05.645Z,29.30
2022-12-03T09:56:34.215Z,25.70
2022-12-03T09:59:01.253Z,27.50
2022-12-03T10:01:30.568Z,24.90
2022-12-03T10:03:58.539Z,26.40
2022-12-03T10:06:25.269Z,29.63
2022-12-03T10:08:54.725Z,30.33
2022-12-03T10:11:24.624Z,29.13
2022-12-03T10:13:52.626Z,25.50
2022-12-03T10:16:21.078Z,27.80
2022-12-03T10:18:52.350Z,28.80
2022-12-03T10:21:20.775Z,27.40
2022-12-03T10:23:50.810Z,30.23
2022-12-03T10:26:35.907Z,28.40
2022-12-03T10:29:02.622Z,30.27
2022-12-03T10:31:35.817Z,29.63
2022-12-03T10:36:54.998Z,28.20
2022-12-03T10:39:21.638Z,28.07
2022-12-03T10:41:49.087Z,27.13
2022-12-03T10:44:25.499Z,27.47
2022-12-03T10:47:13.509Z,27.37
2022-12-03T10:49:42.864Z,30.80
2022-12-03T10:52:25.897Z,28.20
2022-12-03T10:54:53.071Z,28.33
2022-12-03T10:57:20.010Z,26.83
2022-12-03T10:59:46.720Z,30.73
2022-12-03T11:02:22.610Z,25.80
2022-12-03T11:04:50.332Z,28.80
2022-12-03T11:07:21.582Z,29.27
2022-12-03T11:09:51.157Z,27.03
2022-12-03T11:12:21.887Z,29.27
2022-12-03T11:14:52.200Z,27.73
2022-12-03T11:17:46.262Z,26.43
2022-12-03T11:20:25.123Z,26.83
2022-12-03T11:22:54.029Z,27.37
2022-12-03T11:25:26.649Z,28.70
2022-12-03T11:28:11.843Z,29.00
2022-12-03T11:31:01.812Z,26.37
2022-12-03T11:33:33.936Z,25.67
2022-12-03T11:36:03.693Z,27.00
2022-12-03T11:38:52.318Z,28.40
2022-12-03T11:41:31.780Z,25.27
2022-12-03T11:44:04.591Z,26.27
2022-12-03T11:46:37.044Z,26.77
2022-12-03T11:49:25.613Z,25.70
2022-12-03T11:51:52.451Z,25.63
2022-12-03T11:54:21.705Z,24.83
2022-12-03T11:56:49.421Z,25.73
2022-12-03T11:59:18.111Z,26.30
2022-12-03T12:01:45.319Z,27.43
2022-12-03T12:04:37.684Z,26.30
2022-12-03T12:07:04.466Z,26.57
2022-12-03T12:09:57.276Z,26.50
2022-12-03T12:12:54.722Z,28.43
2022-12-03T12:15:41.677Z,26.83
2022-12-03T12:18:53.677Z,26.57
2022-12-03T12:21:48.270Z,27.00
2022-12-03T12:24:40.653Z,27.07
2022-12-03T12:27:10.330Z,26.93
2022-12-03T12:29:39.117Z,26.97
2022-12-03T12:32:08.866Z,26.70
2022-12-03T12:35:03.067Z,29.47
2022-12-03T12:37:47.307Z,28.47
2022-12-03T12:40:17.491Z,28.47
2022-12-03T12:43:12.611Z,27.13
2022-12-03T12:45:43.459Z,28.03
2022-12-03T12:48:10.139Z,27.60
2022-12-03T12:50:38.538Z,26.70
2022-12-03T12:53:11.456Z,25.37
2022-12-03T12:55:39.354Z,26.63
2022-12-03T12:58:15.458Z,23.70
2022-12-03T13:00:42.625Z,22.30
2022-12-03T13:03:14.112Z,25.67
2022-12-03T13:05:44.391Z,23.00
2022-12-03T13:08:21.662Z,20.47
2022-12-03T13:10:49.506Z,19.87
2022-12-03T13:13:21.492Z,18.43
2022-12-03T13:15:55.873Z,19.10
2022-12-03T13:18:27.816Z,21.70
2022-12-03T13:20:55.822Z,22.73
2022-12-03T13:23:29.616Z,23.67
2022-12-03T13:26:04.535Z,25.27
2022-12-03T13:28:36.155Z,23.43
2022-12-03T13:31:44.384Z,24.57
2022-12-03T13:34:19.985Z,22.00
2022-12-03T13:36:50.749Z,23.00
2022-12-03T13:39:47.961Z,23.40
2022-12-03T13:42:33.184Z,23.70
2022-12-03T13:45:02.506Z,25.80
2022-12-03T13:47:29.163Z,23.43
2022-12-03T13:49:58.895Z,24.73
2022-12-03T13:52:26.031Z,22.63
2022-12-03T13:54:56.161Z,24.83
2022-12-03T13:57:23.410Z,22.83
2022-12-03T13:59:50.017Z,20.27
2022-12-03T14:02:16.744Z,21.33
2022-12-03T14:04:43.429Z,23.70
2022-12-03T14:07:10.069Z,22.00
2022-12-03T14:09:36.885Z,22.40
2022-12-03T14:12:22.236Z,22.73
2022-12-03T14:14:49.037Z,23.93
2022-12-03T14:17:15.786Z,26.30
2022-12-03T14:19:43.017Z,23.53
2022-12-03T14:22:10.042Z,25.00
2022-12-03T14:24:37.644Z,25.07
2022-12-03T14:27:04.318Z,25.00
2022-12-03T14:29:30.966Z,25.07
2022-12-03T14:31:57.683Z,23.43
2022-12-03T14:34:24.688Z,24.90
2022-12-03T14:36:51.556Z,22.80
2022-12-03T14:39:18.522Z,27.57
2022-12-03T14:42:04.068Z,25.73
2022-12-03T14:44:30.797Z,22.80
2022-12-03T14:46:57.720Z,23.57
2022-12-03T14:49:24.781Z,28.00
2022-12-03T14:51:51.507Z,24.17
2022-12-03T14:54:18.388Z,24.47
2022-12-03T14:56:45.020Z,25.10
2022-12-03T14:59:11.593Z,25.63
2022-12-03T15:01:38.286Z,27.17
2022-12-03T15:04:05.663Z,22.47
2022-12-03T15:06:32.433Z,26.13
2022-12-03T15:08:59.963Z,25.37
2022-12-03T15:11:26.663Z,26.27
2022-12-03T15:13:53.351Z,27.07
2022-12-03T15:16:20.080Z,26.00
2022-12-03T15:18:46.842Z,22.63
2022-12-03T15:21:13.458Z,23.50
2022-12-03T15:23:40.039Z,27.90
2022-12-03T15:26:06.672Z,22.87
2022-12-03T15:28:33.281Z,22.73
2022-12-03T15:31:00.088Z,24.23
2022-12-03T15:33:26.870Z,28.03
2022-12-03T15:35:53.681Z,25.03
2022-12-03T15:38:20.443Z,22.97
2022-12-03T15:40:47.023Z,22.57
2022-12-03T15:43:13.685Z,25.50
2022-12-03T15:45:40.392Z,25.00
2022-12-03T15:48:07.617Z,26.87
2022-12-03T15:50:40.581Z,25.97
2022-12-03T15:53:07.345Z,23.93
2022-12-03T15:55:33.958Z,24.13
2022-12-03T15:58:00.502Z,27.00
2022-12-03T16:00:27.170Z,23.73
2022-12-03T16:02:53.797Z,28.17
2022-12-03T16:05:20.622Z,23.63
2022-12-03T16:07:47.316Z,26.77
2022-12-03T16:10:14.040Z,25.73
2022-12-03T16:12:40.760Z,28.53
2022-12-03T16:15:07.935Z,25.87
2022-12-03T16:17:34.526Z,27.20
2022-12-03T16:20:01.261Z,26.80
2022-12-03T16:22:27.818Z,26.40
2022-12-03T16:24:54.518Z,28.70
2022-12-03T16:27:25.477Z,27.47
2022-12-03T16:29:53.082Z,28.20
2022-12-03T16:32:19.915Z,25.00
2022-12-03T16:34:46.643Z,31.03
2022-12-03T16:37:13.449Z,27.27
2022-12-03T16:39:40.095Z,26.13
2022-12-03T16:42:11.785Z,28.20
2022-12-03T16:45:05.820Z,27.17
2022-12-03T16:47:34.290Z,28.83
2022-12-03T16:50:02.920Z,30.27
2022-12-03T16:52:29.527Z,31.53
2022-12-03T16:54:56.230Z,29.20
2022-12-03T16:57:22.793Z,25.87
2022-12-03T16:59:49.376Z,33.13
2022-12-03T17:02:16.085Z,30.33
2022-12-03T17:04:42.697Z,31.53
2022-12-03T17:07:09.672Z,29.03
2022-12-03T17:09:36.559Z,31.60
2022-12-03T17:12:03.259Z,30.80
2022-12-03T17:14:33.207Z,33.27
2022-12-03T17:17:00.243Z,32.30
2022-12-03T17:19:26.916Z,31.37
2022-12-03T17:21:54.122Z,31.40
2022-12-03T17:24:21.404Z,28.70
2022-12-03T17:26:48.118Z,32.87
2022-12-03T17:29:14.903Z,30.53
2022-12-03T17:31:42.462Z,31.90
2022-12-03T17:34:09.879Z,33.83
2022-12-03T17:36:36.516Z,33.57
2022-12-03T17:39:03.324Z,33.27
2022-12-03T17:41:30.139Z,33.03
2022-12-03T17:43:56.794Z,29.13
2022-12-03T17:46:23.427Z,31.07
2022-12-03T17:48:50.037Z,30.63
2022-12-03T17:51:16.651Z,32.77
2022-12-03T17:53:43.260Z,31.27
2022-12-03T17:56:09.793Z,34.07
2022-12-03T17:58:36.403Z,31.80
2022-12-03T18:01:03.513Z,34.73
2022-12-03T18:03:30.894Z,31.37
2022-12-03T18:06:12.594Z,30.53
2022-12-03T18:08:39.179Z,31.20
2022-12-03T18:11:06.113Z,33.57
2022-12-03T18:13:32.729Z,31.63
2022-12-03T18:15:59.619Z,33.27
2022-12-03T18:18:26.267Z,34.50
2022-12-03T18:20:53.575Z,34.57
2022-12-03T18:23:20.290Z,31.53
2022-12-03T18:25:47.094Z,30.53
2022-12-03T18:28:13.747Z,38.00
2022-12-03T18:30:40.345Z,33.37
2022-12-03T18:33:07.007Z,32.87
2022-12-03T18:35:33.680Z,37.07
2022-12-03T18:38:00.474Z,32.70
2022-12-03T18:40:27.307Z,35.53
2022-12-03T18:42:55.241Z,34.77
2022-12-03T18:45:21.879Z,33.73
2022-12-03T18:47:48.641Z,31.83
2022-12-03T18:50:15.323Z,37.77
2022-12-03T18:52:42.076Z,34.63
2022-12-03T18:55:13.647Z,35.13
2022-12-03T18:57:40.234Z,34.27
2022-12-03T19:00:13.282Z,35.67
2022-12-03T19:05:27.516Z,36.37
2022-12-03T19:07:55.534Z,34.30
2022-12-03T19:10:23.119Z,34.37
2022-12-03T19:12:49.799Z,34.37
2022-12-03T19:15:16.656Z,37.97
2022-12-03T19:17:48.193Z,33.73
2022-12-03T19:20:14.909Z,35.47
2022-12-03T19:22:41.518Z,35.63
2022-12-03T19:25:08.387Z,35.53
2022-12-03T19:27:35.137Z,38.30
2022-12-03T19:30:01.804Z,38.93
2022-12-03T19:32:28.448Z,37.37
2022-12-03T19:34:55.135Z,39.57
2022-12-03T19:37:21.713Z,37.30
2022-12-03T19:39:52.202Z,43.77
2022-12-03T19:42:19.156Z,39.40
2022-12-03T19:44:45.809Z,38.63
2022-12-03T19:47:12.436Z,40.80
2022-12-03T19:49:39.056Z,40.13
2022-12-03T19:52:05.668Z,46.43
2022-12-03T19:54:32.282Z,40.53
2022-12-03T19:56:58.827Z,39.60
2022-12-03T19:59:25.470Z,44.60
2022-12-03T20:01:52.175Z,40.13
2022-12-03T20:04:19.099Z,41.80
2022-12-03T20:06:45.712Z,43.67
2022-12-03T20:09:17.168Z,45.17
2022-12-03T20:11:45.931Z,44.37
2022-12-03T20:14:15.813Z,45.97
2022-12-03T20:16:43.791Z,42.23
2022-12-03T20:19:14.355Z,42.87
2022-12-03T20:21:41.843Z,38.87
2022-12-03T20:24:13.135Z,41.57
2022-12-03T20:26:40.251Z,39.90
2022-12-03T20:29:06.895Z,43.40
2022-12-03T20:31:33.637Z,42.77
2022-12-03T20:34:03.154Z,43.97
2022-12-03T20:36:31.484Z,40.30
2022-12-03T20:39:01.324Z,40.53
2022-12-03T20:41:28.401Z,41.07
2022-12-03T20:43:55.180Z,42.53
2022-12-03T20:46:25.453Z,37.97
2022-12-03T20:48:54.014Z,41.30
2022-12-03T20:51:23.429Z,40.90
2022-12-03T20:53:50.604Z,41.90
2022-12-03T20:56:22.930Z,42.23
2022-12-03T20:58:50.039Z,43.63
2022-12-03T21:01:19.965Z,40.47
2022-12-03T21:03:47.527Z,41.40
2022-12-03T21:06:15.064Z,42.93
2022-12-03T21:08:43.231Z,41.63
2022-12-03T21:11:12.545Z,42.17
2022-12-03T21:13:43.691Z,43.73
2022-12-03T21:16:14.728Z,48.77
2022-12-03T21:18:42.053Z,47.83
2022-12-03T21:21:11.520Z,45.87
2022-12-03T21:23:38.196Z,48.77
2022-12-03T21:26:11.268Z,50.93
2022-12-03T21:28:39.566Z,48.83
2022-12-03T21:31:08.965Z,49.50
2022-12-03T21:33:36.131Z,47.13
2022-12-03T21:36:03.882Z,47.40
2022-12-03T21:38:30.722Z,50.60
2022-12-03T21:40:58.203Z,51.27
2022-12-03T21:43:25.860Z,52.30
2022-12-03T21:45:52.734Z,52.90
2022-12-03T21:48:20.039Z,47.87
2022-12-03T21:50:56.968Z,46.60
2022-12-03T21:53:23.515Z,51.07
2022-12-03T21:55:50.066Z,51.60
2022-12-03T21:58:16.704Z,50.37
2022-12-03T22:00:43.352Z,53.60
2022-12-03T22:03:10.018Z,54.00
2022-12-03T22:05:38.326Z,53.03
2022-12-03T22:08:05.345Z,55.23
2022-12-03T22:10:31.991Z,52.73
2022-12-03T22:12:58.557Z,54.87
2022-12-03T22:15:25.226Z,47.07
2022-12-03T22:17:52.017Z,50.77
2022-12-03T22:20:18.787Z,47.67
2022-12-03T22:22:45.434Z,52.27
2022-12-03T22:25:40.697Z,48.20
2022-12-03T22:28:39.877Z,47.77
2022-12-03T22:31:07.757Z,47.47
2022-12-03T22:33:35.770Z,47.53
2022-12-03T22:36:05.697Z,48.40
2022-12-03T22:38:32.729Z,44.07
2022-12-03T22:40:59.765Z,48.73
2022-12-03T22:43:26.362Z,45.03
2022-12-03T22:45:54.660Z,49.70
2022-12-03T22:48:22.621Z,46.73
2022-12-03T22:50:51.281Z,46.70
2022-12-03T22:53:18.525Z,45.40
2022-12-03T22:55:45.158Z,44.93
2022-12-03T22:58:11.749Z,46.90
2022-12-03T23:00:40.532Z,45.60
2022-12-03T23:03:08.421Z,42.13
2022-12-03T23:05:38.384Z,43.60
2022-12-03T23:08:11.222Z,48.07
2022-12-03T23:10:40.972Z,45.07
2022-12-03T23:13:08.722Z,44.67
2022-12-03T23:15:35.530Z,45.67
2022-12-03T23:18:02.314Z,45.47
2022-12-03T23:20:29.452Z,45.20
2022-12-03T23:22:56.338Z,43.30
2022-12-03T23:25:23.036Z,42.70
2022-12-03T23:27:49.825Z,46.47
2022-12-03T23:30:24.073Z,43.93
2022-12-03T23:32:53.801Z,43.60
2022-12-03T23:35:20.434Z,42.90
2022-12-03T23:37:47.008Z,42.93
2022-12-03T23:40:14.209Z,43.80
2022-12-03T23:42:40.865Z,41.60
2022-12-03T23:45:08.120Z,47.23
2022-12-03T23:47:34.854Z,42.83
2022-12-03T23:50:01.499Z,44.13
2022-12-03T23:52:28.197Z,43.77
2022-12-03T23:54:54.864Z,41.90
2022-12-03T23:57:21.473Z,42.50
2022-12-03T23:59:48.817Z,45.07
